sensor_id;sensor_type;location;lat;lon;timestamp;temperature;humidity
8892;DHT22;4482;54.332;10.118;2024-01-11T00:00:28;0.60;99.90
8892;DHT22;4482;54.332;10.118;2024-01-11T00:02:55;0.50;99.90
8892;DHT22;4482;54.332;10.118;2024-01-11T00:05:23;0.50;99.90
8892;DHT22;4482;54.332;10.118;2024-01-11T00:07:50;0.50;99.90
8892;DHT22;4482;54.332;10.118;2024-01-11T00:10:16;0.50;99.90
8892;DHT22;4482;54.332;10.118;2024-01-11T00:12:43;0.50;99.90
8892;DHT22;4482;54.332;10.118;2024-01-11T00:15:10;0.50;99.90
8892;DHT22;4482;54.332;10.118;2024-01-11T00:17:36;0.50;99.90
8892;DHT22;4482;54.332;10.118;2024-01-11T00:20:03;0.50;99.90
8892;DHT22;4482;54.332;10.118;2024-01-11T00:22:32;0.50;99.90
8892;DHT22;4482;54.332;10.118;2024-01-11T00:24:58;0.50;99.90
8892;DHT22;4482;54.332;10.118;2024-01-11T00:27:25;0.50;99.90
8892;DHT22;4482;54.332;10.118;2024-01-11T00:29:53;0.50;99.90
8892;DHT22;4482;54.332;10.118;2024-01-11T00:32:19;0.50;99.90
8892;DHT22;4482;54.332;10.118;2024-01-11T00:34:46;0.50;99.90
8892;DHT22;4482;54.332;10.118;2024-01-11T00:37:13;0.50;99.90
8892;DHT22;4482;54.332;10.118;2024-01-11T00:39:41;0.50;99.90
8892;DHT22;4482;54.332;10.118;2024-01-11T00:42:09;0.40;99.90
8892;DHT22;4482;54.332;10.118;2024-01-11T00:44:36;0.40;99.90
8892;DHT22;4482;54.332;10.118;2024-01-11T00:47:02;0.40;99.90
8892;DHT22;4482;54.332;10.118;2024-01-11T00:49:29;0.40;99.90
8892;DHT22;4482;54.332;10.118;2024-01-11T00:51:56;0.40;99.90
8892;DHT22;4482;54.332;10.118;2024-01-11T00:54:23;0.40;99.90
8892;DHT22;4482;54.332;10.118;2024-01-11T00:56:51;0.40;99.90
8892;DHT22;4482;54.332;10.118;2024-01-11T00:59:18;0.40;99.90
8892;DHT22;4482;54.332;10.118;2024-01-11T01:01:46;0.30;99.90
8892;DHT22;4482;54.332;10.118;2024-01-11T01:04:13;0.30;99.90
8892;DHT22;4482;54.332;10.118;2024-01-11T01:06:40;0.30;99.90
8892;DHT22;4482;54.332;10.118;2024-01-11T01:09:07;0.30;99.90
8892;DHT22;4482;54.332;10.118;2024-01-11T01:11:34;0.20;99.90
8892;DHT22;4482;54.332;10.118;2024-01-11T01:14:02;0.20;99.90
8892;DHT22;4482;54.332;10.118;2024-01-11T01:16:29;0.30;99.90
8892;DHT22;4482;54.332;10.118;2024-01-11T01:18:56;0.30;99.90
8892;DHT22;4482;54.332;10.118;2024-01-11T01:21:22;0.30;99.90
8892;DHT22;4482;54.332;10.118;2024-01-11T01:23:49;0.30;99.90
8892;DHT22;4482;54.332;10.118;2024-01-11T01:26:16;0.30;99.90
8892;DHT22;4482;54.332;10.118;2024-01-11T01:28:43;0.30;99.90
8892;DHT22;4482;54.332;10.118;2024-01-11T01:31:11;0.30;99.90
8892;DHT22;4482;54.332;10.118;2024-01-11T01:33:37;0.30;99.90
8892;DHT22;4482;54.332;10.118;2024-01-11T01:36:07;0.30;99.90
8892;DHT22;4482;54.332;10.118;2024-01-11T01:38:34;0.20;99.90
8892;DHT22;4482;54.332;10.118;2024-01-11T01:41:01;0.20;99.90
8892;DHT22;4482;54.332;10.118;2024-01-11T01:43:28;0.30;99.90
8892;DHT22;4482;54.332;10.118;2024-01-11T01:45:54;0.30;99.90
8892;DHT22;4482;54.332;10.118;2024-01-11T01:48:23;0.30;99.90
8892;DHT22;4482;54.332;10.118;2024-01-11T01:50:50;0.30;99.90
8892;DHT22;4482;54.332;10.118;2024-01-11T01:53:17;0.30;99.90
8892;DHT22;4482;54.332;10.118;2024-01-11T01:55:44;0.40;99.90
8892;DHT22;4482;54.332;10.118;2024-01-11T01:58:11;0.70;99.90
8892;DHT22;4482;54.332;10.118;2024-01-11T02:00:38;0.90;99.90
8892;DHT22;4482;54.332;10.118;2024-01-11T02:03:06;0.90;99.90
8892;DHT22;4482;54.332;10.118;2024-01-11T02:05:34;0.80;99.90
8892;DHT22;4482;54.332;10.118;2024-01-11T02:08:01;0.70;99.90
8892;DHT22;4482;54.332;10.118;2024-01-11T02:10:30;0.80;99.90
8892;DHT22;4482;54.332;10.118;2024-01-11T02:12:59;0.70;99.90
8892;DHT22;4482;54.332;10.118;2024-01-11T02:15:26;0.60;99.90
8892;DHT22;4482;54.332;10.118;2024-01-11T02:17:52;0.90;99.90
8892;DHT22;4482;54.332;10.118;2024-01-11T02:20:19;0.90;99.90
8892;DHT22;4482;54.332;10.118;2024-01-11T02:22:49;0.90;99.90
8892;DHT22;4482;54.332;10.118;2024-01-11T02:25:18;0.90;99.90
8892;DHT22;4482;54.332;10.118;2024-01-11T02:27:45;1.00;99.90
8892;DHT22;4482;54.332;10.118;2024-01-11T02:30:12;1.10;99.90
8892;DHT22;4482;54.332;10.118;2024-01-11T02:32:39;1.10;99.90
8892;DHT22;4482;54.332;10.118;2024-01-11T02:35:06;1.00;99.90
8892;DHT22;4482;54.332;10.118;2024-01-11T02:37:32;0.90;99.90
8892;DHT22;4482;54.332;10.118;2024-01-11T02:39:59;0.70;99.90
8892;DHT22;4482;54.332;10.118;2024-01-11T02:42:27;0.70;99.90
8892;DHT22;4482;54.332;10.118;2024-01-11T02:44:54;0.60;99.90
8892;DHT22;4482;54.332;10.118;2024-01-11T02:47:21;0.50;99.90
8892;DHT22;4482;54.332;10.118;2024-01-11T02:49:47;0.50;99.90
8892;DHT22;4482;54.332;10.118;2024-01-11T02:52:14;0.50;99.90
8892;DHT22;4482;54.332;10.118;2024-01-11T02:54:41;0.50;99.90
8892;DHT22;4482;54.332;10.118;2024-01-11T02:57:07;0.50;99.90
8892;DHT22;4482;54.332;10.118;2024-01-11T02:59:35;0.50;99.90
8892;DHT22;4482;54.332;10.118;2024-01-11T03:02:02;0.50;99.90
8892;DHT22;4482;54.332;10.118;2024-01-11T03:04:29;0.50;99.90
8892;DHT22;4482;54.332;10.118;2024-01-11T03:06:56;0.50;99.90
8892;DHT22;4482;54.332;10.118;2024-01-11T03:09:22;0.60;99.90
8892;DHT22;4482;54.332;10.118;2024-01-11T03:11:49;0.50;99.90
8892;DHT22;4482;54.332;10.118;2024-01-11T03:14:16;0.60;99.90
8892;DHT22;4482;54.332;10.118;2024-01-11T03:16:44;0.60;99.90
8892;DHT22;4482;54.332;10.118;2024-01-11T03:19:10;0.60;99.90
8892;DHT22;4482;54.332;10.118;2024-01-11T03:21:40;0.50;99.90
8892;DHT22;4482;54.332;10.118;2024-01-11T03:24:07;0.60;99.90
8892;DHT22;4482;54.332;10.118;2024-01-11T03:26:33;0.50;99.90
8892;DHT22;4482;54.332;10.118;2024-01-11T03:29:00;0.60;99.90
8892;DHT22;4482;54.332;10.118;2024-01-11T03:31:27;0.70;99.90
8892;DHT22;4482;54.332;10.118;2024-01-11T03:33:55;0.60;99.90
8892;DHT22;4482;54.332;10.118;2024-01-11T03:36:22;0.60;99.90
8892;DHT22;4482;54.332;10.118;2024-01-11T03:38:50;0.60;99.90
8892;DHT22;4482;54.332;10.118;2024-01-11T03:41:16;0.60;99.90
8892;DHT22;4482;54.332;10.118;2024-01-11T03:43:43;0.60;99.90
8892;DHT22;4482;54.332;10.118;2024-01-11T03:46:10;0.70;99.90
8892;DHT22;4482;54.332;10.118;2024-01-11T03:48:37;0.70;99.90
8892;DHT22;4482;54.332;10.118;2024-01-11T03:51:05;0.60;99.90
8892;DHT22;4482;54.332;10.118;2024-01-11T03:53:34;0.70;99.90
8892;DHT22;4482;54.332;10.118;2024-01-11T03:56:01;0.60;99.90
8892;DHT22;4482;54.332;10.118;2024-01-11T03:58:28;0.70;99.90
8892;DHT22;4482;54.332;10.118;2024-01-11T04:00:54;0.70;99.90
8892;DHT22;4482;54.332;10.118;2024-01-11T04:03:21;0.80;99.90
8892;DHT22;4482;54.332;10.118;2024-01-11T04:05:48;0.80;99.90
8892;DHT22;4482;54.332;10.118;2024-01-11T04:08:16;0.70;99.90
8892;DHT22;4482;54.332;10.118;2024-01-11T04:10:42;0.70;99.90
8892;DHT22;4482;54.332;10.118;2024-01-11T04:13:09;0.70;99.90
8892;DHT22;4482;54.332;10.118;2024-01-11T04:15:36;0.70;99.90
8892;DHT22;4482;54.332;10.118;2024-01-11T04:18:03;0.80;99.90
8892;DHT22;4482;54.332;10.118;2024-01-11T04:20:30;0.70;99.90
8892;DHT22;4482;54.332;10.118;2024-01-11T04:22:56;0.70;99.90
8892;DHT22;4482;54.332;10.118;2024-01-11T04:25:24;0.70;99.90
8892;DHT22;4482;54.332;10.118;2024-01-11T04:27:51;0.70;99.90
8892;DHT22;4482;54.332;10.118;2024-01-11T04:30:18;0.70;99.90
8892;DHT22;4482;54.332;10.118;2024-01-11T04:32:44;0.70;99.90
8892;DHT22;4482;54.332;10.118;2024-01-11T04:35:11;0.70;99.90
8892;DHT22;4482;54.332;10.118;2024-01-11T04:37:38;0.70;99.90
8892;DHT22;4482;54.332;10.118;2024-01-11T04:40:05;0.70;99.90
8892;DHT22;4482;54.332;10.118;2024-01-11T04:42:34;0.70;99.90
8892;DHT22;4482;54.332;10.118;2024-01-11T04:45:01;0.70;99.90
8892;DHT22;4482;54.332;10.118;2024-01-11T04:47:30;0.80;99.90
8892;DHT22;4482;54.332;10.118;2024-01-11T04:49:57;0.80;99.90
8892;DHT22;4482;54.332;10.118;2024-01-11T04:52:24;0.80;99.90
8892;DHT22;4482;54.332;10.118;2024-01-11T04:54:51;0.70;99.90
8892;DHT22;4482;54.332;10.118;2024-01-11T04:57:18;0.80;99.90
8892;DHT22;4482;54.332;10.118;2024-01-11T04:59:46;0.90;99.90
8892;DHT22;4482;54.332;10.118;2024-01-11T05:02:12;0.90;99.90
8892;DHT22;4482;54.332;10.118;2024-01-11T05:04:39;0.90;99.90
8892;DHT22;4482;54.332;10.118;2024-01-11T05:07:06;1.00;99.90
8892;DHT22;4482;54.332;10.118;2024-01-11T05:09:32;1.00;99.90
8892;DHT22;4482;54.332;10.118;2024-01-11T05:11:59;1.00;99.90
8892;DHT22;4482;54.332;10.118;2024-01-11T05:14:26;1.00;99.90
8892;DHT22;4482;54.332;10.118;2024-01-11T05:16:54;1.10;99.90
8892;DHT22;4482;54.332;10.118;2024-01-11T05:19:21;1.10;99.90
8892;DHT22;4482;54.332;10.118;2024-01-11T05:21:48;1.10;99.90
8892;DHT22;4482;54.332;10.118;2024-01-11T05:24:14;1.10;99.90
8892;DHT22;4482;54.332;10.118;2024-01-11T05:26:41;1.20;99.90
8892;DHT22;4482;54.332;10.118;2024-01-11T05:29:08;1.10;99.90
8892;DHT22;4482;54.332;10.118;2024-01-11T05:31:35;1.10;99.90
8892;DHT22;4482;54.332;10.118;2024-01-11T05:34:03;1.20;99.90
8892;DHT22;4482;54.332;10.118;2024-01-11T05:36:30;1.20;99.90
8892;DHT22;4482;54.332;10.118;2024-01-11T05:38:56;1.20;99.90
8892;DHT22;4482;54.332;10.118;2024-01-11T05:41:23;1.10;99.90
8892;DHT22;4482;54.332;10.118;2024-01-11T05:43:50;1.10;99.90
8892;DHT22;4482;54.332;10.118;2024-01-11T05:46:16;1.00;99.90
8892;DHT22;4482;54.332;10.118;2024-01-11T05:48:43;1.00;99.90
8892;DHT22;4482;54.332;10.118;2024-01-11T05:51:11;1.00;99.90
8892;DHT22;4482;54.332;10.118;2024-01-11T05:53:38;1.00;99.90
8892;DHT22;4482;54.332;10.118;2024-01-11T05:56:07;0.90;99.90
8892;DHT22;4482;54.332;10.118;2024-01-11T05:58:33;1.00;99.90
8892;DHT22;4482;54.332;10.118;2024-01-11T06:01:01;1.00;99.90
8892;DHT22;4482;54.332;10.118;2024-01-11T06:03:28;1.00;99.90
8892;DHT22;4482;54.332;10.118;2024-01-11T06:05:55;1.00;99.90
8892;DHT22;4482;54.332;10.118;2024-01-11T06:08:23;1.00;99.90
8892;DHT22;4482;54.332;10.118;2024-01-11T06:10:49;0.90;99.90
8892;DHT22;4482;54.332;10.118;2024-01-11T06:13:17;1.00;99.90
8892;DHT22;4482;54.332;10.118;2024-01-11T06:15:44;0.90;99.90
8892;DHT22;4482;54.332;10.118;2024-01-11T06:18:11;0.90;99.90
8892;DHT22;4482;54.332;10.118;2024-01-11T06:20:37;0.90;99.90
8892;DHT22;4482;54.332;10.118;2024-01-11T06:23:04;1.10;99.90
8892;DHT22;4482;54.332;10.118;2024-01-11T06:25:32;1.10;99.90
8892;DHT22;4482;54.332;10.118;2024-01-11T06:27:59;1.20;99.90
8892;DHT22;4482;54.332;10.118;2024-01-11T06:30:25;1.20;99.90
8892;DHT22;4482;54.332;10.118;2024-01-11T06:32:52;1.10;99.90
8892;DHT22;4482;54.332;10.118;2024-01-11T06:35:19;1.10;99.90
8892;DHT22;4482;54.332;10.118;2024-01-11T06:37:45;1.10;99.90
8892;DHT22;4482;54.332;10.118;2024-01-11T06:40:12;1.10;99.90
8892;DHT22;4482;54.332;10.118;2024-01-11T06:42:40;1.10;99.90
8892;DHT22;4482;54.332;10.118;2024-01-11T06:45:07;1.10;99.90
8892;DHT22;4482;54.332;10.118;2024-01-11T06:47:34;1.20;99.90
8892;DHT22;4482;54.332;10.118;2024-01-11T06:50:01;1.20;99.90
8892;DHT22;4482;54.332;10.118;2024-01-11T06:52:28;1.20;99.90
8892;DHT22;4482;54.332;10.118;2024-01-11T06:54:55;1.10;99.90
8892;DHT22;4482;54.332;10.118;2024-01-11T06:57:22;1.20;99.90
8892;DHT22;4482;54.332;10.118;2024-01-11T06:59:51;1.30;99.90
8892;DHT22;4482;54.332;10.118;2024-01-11T07:02:18;1.30;99.90
8892;DHT22;4482;54.332;10.118;2024-01-11T07:04:44;1.30;99.90
8892;DHT22;4482;54.332;10.118;2024-01-11T07:07:11;1.30;99.90
8892;DHT22;4482;54.332;10.118;2024-01-11T07:09:38;1.30;99.90
8892;DHT22;4482;54.332;10.118;2024-01-11T07:12:05;1.30;99.90
8892;DHT22;4482;54.332;10.118;2024-01-11T07:14:32;1.30;99.90
8892;DHT22;4482;54.332;10.118;2024-01-11T07:17:00;1.30;99.90
8892;DHT22;4482;54.332;10.118;2024-01-11T07:19:26;1.20;99.90
8892;DHT22;4482;54.332;10.118;2024-01-11T07:21:53;1.20;99.90
8892;DHT22;4482;54.332;10.118;2024-01-11T07:24:20;1.30;99.90
8892;DHT22;4482;54.332;10.118;2024-01-11T07:26:46;1.30;99.90
8892;DHT22;4482;54.332;10.118;2024-01-11T07:29:13;1.20;99.90
8892;DHT22;4482;54.332;10.118;2024-01-11T07:31:40;1.30;99.90
8892;DHT22;4482;54.332;10.118;2024-01-11T07:34:08;1.30;99.90
8892;DHT22;4482;54.332;10.118;2024-01-11T07:36:35;1.20;99.90
8892;DHT22;4482;54.332;10.118;2024-01-11T07:39:01;1.30;99.90
8892;DHT22;4482;54.332;10.118;2024-01-11T07:41:29;1.30;99.90
8892;DHT22;4482;54.332;10.118;2024-01-11T07:43:56;1.30;99.90
8892;DHT22;4482;54.332;10.118;2024-01-11T07:46:24;1.30;99.90
8892;DHT22;4482;54.332;10.118;2024-01-11T07:48:51;1.30;99.90
8892;DHT22;4482;54.332;10.118;2024-01-11T07:51:19;1.30;99.90
8892;DHT22;4482;54.332;10.118;2024-01-11T07:53:46;1.30;99.90
8892;DHT22;4482;54.332;10.118;2024-01-11T07:56:13;1.20;99.90
8892;DHT22;4482;54.332;10.118;2024-01-11T07:58:40;1.30;99.90
8892;DHT22;4482;54.332;10.118;2024-01-11T08:01:07;1.30;99.90
8892;DHT22;4482;54.332;10.118;2024-01-11T08:03:34;1.30;99.90
8892;DHT22;4482;54.332;10.118;2024-01-11T08:06:00;1.30;99.90
8892;DHT22;4482;54.332;10.118;2024-01-11T08:08:28;1.40;99.90
8892;DHT22;4482;54.332;10.118;2024-01-11T08:10:55;1.40;99.90
8892;DHT22;4482;54.332;10.118;2024-01-11T08:13:22;1.40;99.90
8892;DHT22;4482;54.332;10.118;2024-01-11T08:15:48;1.30;99.90
8892;DHT22;4482;54.332;10.118;2024-01-11T08:18:18;1.40;99.90
8892;DHT22;4482;54.332;10.118;2024-01-11T08:20:44;1.40;99.90
8892;DHT22;4482;54.332;10.118;2024-01-11T08:23:11;1.40;99.90
8892;DHT22;4482;54.332;10.118;2024-01-11T08:25:39;1.40;99.90
8892;DHT22;4482;54.332;10.118;2024-01-11T08:28:06;1.50;99.90
8892;DHT22;4482;54.332;10.118;2024-01-11T08:30:33;1.50;99.90
8892;DHT22;4482;54.332;10.118;2024-01-11T08:33:00;1.50;99.90
8892;DHT22;4482;54.332;10.118;2024-01-11T08:35:26;1.50;99.90
8892;DHT22;4482;54.332;10.118;2024-01-11T08:37:53;1.60;99.90
8892;DHT22;4482;54.332;10.118;2024-01-11T08:40:20;1.60;99.90
8892;DHT22;4482;54.332;10.118;2024-01-11T08:42:48;1.60;99.90
8892;DHT22;4482;54.332;10.118;2024-01-11T08:45:15;1.60;99.90
8892;DHT22;4482;54.332;10.118;2024-01-11T08:47:43;1.60;99.90
8892;DHT22;4482;54.332;10.118;2024-01-11T08:50:12;1.60;99.90
8892;DHT22;4482;54.332;10.118;2024-01-11T08:52:38;1.60;99.90
8892;DHT22;4482;54.332;10.118;2024-01-11T08:55:05;1.70;99.90
8892;DHT22;4482;54.332;10.118;2024-01-11T08:57:32;1.70;99.90
8892;DHT22;4482;54.332;10.118;2024-01-11T09:00:02;1.60;99.90
8892;DHT22;4482;54.332;10.118;2024-01-11T09:02:29;1.70;99.90
8892;DHT22;4482;54.332;10.118;2024-01-11T09:04:56;1.70;99.90
8892;DHT22;4482;54.332;10.118;2024-01-11T09:07:22;1.70;99.90
8892;DHT22;4482;54.332;10.118;2024-01-11T09:09:49;1.70;99.90
8892;DHT22;4482;54.332;10.118;2024-01-11T09:12:16;1.70;99.90
8892;DHT22;4482;54.332;10.118;2024-01-11T09:14:43;1.80;99.90
8892;DHT22;4482;54.332;10.118;2024-01-11T09:17:11;1.80;99.90
8892;DHT22;4482;54.332;10.118;2024-01-11T09:19:37;1.80;99.90
8892;DHT22;4482;54.332;10.118;2024-01-11T09:22:05;1.90;99.90
8892;DHT22;4482;54.332;10.118;2024-01-11T09:24:33;1.90;99.90
8892;DHT22;4482;54.332;10.118;2024-01-11T09:27:00;1.90;99.90
8892;DHT22;4482;54.332;10.118;2024-01-11T09:29:27;1.90;99.90
8892;DHT22;4482;54.332;10.118;2024-01-11T09:31:54;2.00;99.90
8892;DHT22;4482;54.332;10.118;2024-01-11T09:34:22;2.00;99.90
8892;DHT22;4482;54.332;10.118;2024-01-11T09:36:48;2.10;99.90
8892;DHT22;4482;54.332;10.118;2024-01-11T09:39:15;2.10;99.90
8892;DHT22;4482;54.332;10.118;2024-01-11T09:41:42;2.20;99.90
8892;DHT22;4482;54.332;10.118;2024-01-11T09:44:13;2.30;99.90
8892;DHT22;4482;54.332;10.118;2024-01-11T09:46:40;2.20;99.90
8892;DHT22;4482;54.332;10.118;2024-01-11T09:49:07;2.30;99.90
8892;DHT22;4482;54.332;10.118;2024-01-11T09:51:36;2.30;99.90
8892;DHT22;4482;54.332;10.118;2024-01-11T09:54:04;2.40;99.90
8892;DHT22;4482;54.332;10.118;2024-01-11T09:56:31;2.40;99.90
8892;DHT22;4482;54.332;10.118;2024-01-11T09:58:58;2.40;99.90
8892;DHT22;4482;54.332;10.118;2024-01-11T10:01:24;2.30;99.90
8892;DHT22;4482;54.332;10.118;2024-01-11T10:03:52;2.40;99.90
8892;DHT22;4482;54.332;10.118;2024-01-11T10:06:19;2.30;99.90
8892;DHT22;4482;54.332;10.118;2024-01-11T10:08:47;2.30;99.90
8892;DHT22;4482;54.332;10.118;2024-01-11T10:11:14;2.30;99.90
8892;DHT22;4482;54.332;10.118;2024-01-11T10:13:41;2.40;99.90
8892;DHT22;4482;54.332;10.118;2024-01-11T10:16:08;2.50;99.90
8892;DHT22;4482;54.332;10.118;2024-01-11T10:18:36;2.50;99.90
8892;DHT22;4482;54.332;10.118;2024-01-11T10:21:03;2.60;99.90
8892;DHT22;4482;54.332;10.118;2024-01-11T10:23:32;2.60;99.90
8892;DHT22;4482;54.332;10.118;2024-01-11T10:26:01;2.70;99.90
8892;DHT22;4482;54.332;10.118;2024-01-11T10:28:27;2.80;99.90
8892;DHT22;4482;54.332;10.118;2024-01-11T10:30:54;2.90;99.90
8892;DHT22;4482;54.332;10.118;2024-01-11T10:33:22;2.90;99.90
8892;DHT22;4482;54.332;10.118;2024-01-11T10:35:49;3.00;99.90
8892;DHT22;4482;54.332;10.118;2024-01-11T10:38:16;3.10;99.90
8892;DHT22;4482;54.332;10.118;2024-01-11T10:40:43;3.20;99.90
8892;DHT22;4482;54.332;10.118;2024-01-11T10:43:13;3.20;99.90
8892;DHT22;4482;54.332;10.118;2024-01-11T10:45:42;3.20;99.90
8892;DHT22;4482;54.332;10.118;2024-01-11T10:48:12;3.30;99.90
8892;DHT22;4482;54.332;10.118;2024-01-11T10:50:41;3.20;99.90
8892;DHT22;4482;54.332;10.118;2024-01-11T10:53:12;3.20;99.90
8892;DHT22;4482;54.332;10.118;2024-01-11T10:55:38;3.30;99.90
8892;DHT22;4482;54.332;10.118;2024-01-11T10:58:05;3.40;99.90
8892;DHT22;4482;54.332;10.118;2024-01-11T11:00:34;3.50;99.90
8892;DHT22;4482;54.332;10.118;2024-01-11T11:03:01;3.50;99.90
8892;DHT22;4482;54.332;10.118;2024-01-11T11:05:29;3.50;99.90
8892;DHT22;4482;54.332;10.118;2024-01-11T11:07:56;3.50;99.90
8892;DHT22;4482;54.332;10.118;2024-01-11T11:10:22;3.50;99.90
8892;DHT22;4482;54.332;10.118;2024-01-11T11:12:51;3.40;99.90
8892;DHT22;4482;54.332;10.118;2024-01-11T11:15:18;3.50;99.90
8892;DHT22;4482;54.332;10.118;2024-01-11T11:17:46;3.60;99.90
8892;DHT22;4482;54.332;10.118;2024-01-11T11:20:15;3.50;99.90
8892;DHT22;4482;54.332;10.118;2024-01-11T11:22:42;3.50;99.90
8892;DHT22;4482;54.332;10.118;2024-01-11T11:25:09;3.50;99.90
8892;DHT22;4482;54.332;10.118;2024-01-11T11:27:36;3.70;99.90
8892;DHT22;4482;54.332;10.118;2024-01-11T11:30:04;3.60;99.90
8892;DHT22;4482;54.332;10.118;2024-01-11T11:32:34;3.70;99.90
8892;DHT22;4482;54.332;10.118;2024-01-11T11:35:03;3.70;99.90
8892;DHT22;4482;54.332;10.118;2024-01-11T11:37:30;3.70;99.90
8892;DHT22;4482;54.332;10.118;2024-01-11T11:39:57;3.80;99.90
8892;DHT22;4482;54.332;10.118;2024-01-11T11:42:24;3.90;99.90
8892;DHT22;4482;54.332;10.118;2024-01-11T11:44:51;3.90;99.90
8892;DHT22;4482;54.332;10.118;2024-01-11T11:47:18;4.00;99.90
8892;DHT22;4482;54.332;10.118;2024-01-11T11:49:57;3.90;99.90
8892;DHT22;4482;54.332;10.118;2024-01-11T11:52:27;3.90;99.90
8892;DHT22;4482;54.332;10.118;2024-01-11T11:54:54;3.90;99.90
8892;DHT22;4482;54.332;10.118;2024-01-11T11:57:22;3.80;99.90
8892;DHT22;4482;54.332;10.118;2024-01-11T11:59:49;3.80;99.90
8892;DHT22;4482;54.332;10.118;2024-01-11T12:02:16;3.90;99.90
8892;DHT22;4482;54.332;10.118;2024-01-11T12:04:46;3.90;99.90
8892;DHT22;4482;54.332;10.118;2024-01-11T12:07:12;3.90;99.90
8892;DHT22;4482;54.332;10.118;2024-01-11T12:09:40;3.90;99.90
8892;DHT22;4482;54.332;10.118;2024-01-11T12:12:07;4.00;99.90
8892;DHT22;4482;54.332;10.118;2024-01-11T12:14:34;3.90;99.90
8892;DHT22;4482;54.332;10.118;2024-01-11T12:17:01;4.00;99.90
8892;DHT22;4482;54.332;10.118;2024-01-11T12:19:28;4.00;99.90
8892;DHT22;4482;54.332;10.118;2024-01-11T12:21:54;4.00;99.90
8892;DHT22;4482;54.332;10.118;2024-01-11T12:24:21;4.00;99.90
8892;DHT22;4482;54.332;10.118;2024-01-11T12:26:50;4.00;99.90
8892;DHT22;4482;54.332;10.118;2024-01-11T12:29:19;4.10;99.90
8892;DHT22;4482;54.332;10.118;2024-01-11T12:31:45;4.00;99.90
8892;DHT22;4482;54.332;10.118;2024-01-11T12:34:12;4.00;99.90
8892;DHT22;4482;54.332;10.118;2024-01-11T12:36:39;3.90;99.90
8892;DHT22;4482;54.332;10.118;2024-01-11T12:39:07;3.90;99.90
8892;DHT22;4482;54.332;10.118;2024-01-11T12:41:35;3.80;99.90
8892;DHT22;4482;54.332;10.118;2024-01-11T12:44:03;3.90;99.90
8892;DHT22;4482;54.332;10.118;2024-01-11T12:46:30;3.80;99.90
8892;DHT22;4482;54.332;10.118;2024-01-11T12:48:56;3.90;99.90
8892;DHT22;4482;54.332;10.118;2024-01-11T12:51:23;3.90;99.90
8892;DHT22;4482;54.332;10.118;2024-01-11T12:53:51;3.90;99.90
8892;DHT22;4482;54.332;10.118;2024-01-11T12:56:18;3.80;99.90
8892;DHT22;4482;54.332;10.118;2024-01-11T12:58:46;3.90;99.90
8892;DHT22;4482;54.332;10.118;2024-01-11T13:01:15;3.80;99.90
8892;DHT22;4482;54.332;10.118;2024-01-11T13:03:43;3.90;99.90
8892;DHT22;4482;54.332;10.118;2024-01-11T13:06:11;3.80;99.90
8892;DHT22;4482;54.332;10.118;2024-01-11T13:08:38;3.80;99.90
8892;DHT22;4482;54.332;10.118;2024-01-11T13:11:07;3.80;99.90
8892;DHT22;4482;54.332;10.118;2024-01-11T13:13:34;3.70;99.90
8892;DHT22;4482;54.332;10.118;2024-01-11T13:16:01;3.70;99.90
8892;DHT22;4482;54.332;10.118;2024-01-11T13:18:32;3.60;99.90
8892;DHT22;4482;54.332;10.118;2024-01-11T13:20:59;3.70;99.90
8892;DHT22;4482;54.332;10.118;2024-01-11T13:23:26;3.60;99.90
8892;DHT22;4482;54.332;10.118;2024-01-11T13:25:52;3.60;99.90
8892;DHT22;4482;54.332;10.118;2024-01-11T13:28:19;3.50;99.90
8892;DHT22;4482;54.332;10.118;2024-01-11T13:30:46;3.50;99.90
8892;DHT22;4482;54.332;10.118;2024-01-11T13:33:14;3.50;99.90
8892;DHT22;4482;54.332;10.118;2024-01-11T13:35:43;3.40;99.90
8892;DHT22;4482;54.332;10.118;2024-01-11T13:38:10;3.40;99.90
8892;DHT22;4482;54.332;10.118;2024-01-11T13:40:37;3.40;99.90
8892;DHT22;4482;54.332;10.118;2024-01-11T13:43:05;3.30;99.90
8892;DHT22;4482;54.332;10.118;2024-01-11T13:45:32;3.40;99.90
8892;DHT22;4482;54.332;10.118;2024-01-11T13:48:01;3.40;99.90
8892;DHT22;4482;54.332;10.118;2024-01-11T13:50:28;3.30;99.90
8892;DHT22;4482;54.332;10.118;2024-01-11T13:52:56;3.30;99.90
8892;DHT22;4482;54.332;10.118;2024-01-11T13:55:23;3.30;99.90
8892;DHT22;4482;54.332;10.118;2024-01-11T13:57:50;3.30;99.90
8892;DHT22;4482;54.332;10.118;2024-01-11T14:00:18;3.30;99.90
8892;DHT22;4482;54.332;10.118;2024-01-11T14:02:45;3.40;99.90
8892;DHT22;4482;54.332;10.118;2024-01-11T14:05:14;3.40;99.90
8892;DHT22;4482;54.332;10.118;2024-01-11T14:07:44;3.40;99.90
8892;DHT22;4482;54.332;10.118;2024-01-11T14:10:13;3.40;99.90
8892;DHT22;4482;54.332;10.118;2024-01-11T14:12:40;3.40;99.90
8892;DHT22;4482;54.332;10.118;2024-01-11T14:15:07;3.40;99.90
8892;DHT22;4482;54.332;10.118;2024-01-11T14:17:36;3.30;99.90
8892;DHT22;4482;54.332;10.118;2024-01-11T14:20:04;3.30;99.90
8892;DHT22;4482;54.332;10.118;2024-01-11T14:22:35;3.30;99.90
8892;DHT22;4482;54.332;10.118;2024-01-11T14:25:01;3.40;99.90
8892;DHT22;4482;54.332;10.118;2024-01-11T14:27:30;3.30;99.90
8892;DHT22;4482;54.332;10.118;2024-01-11T14:29:56;3.30;99.90
8892;DHT22;4482;54.332;10.118;2024-01-11T14:32:24;3.30;99.90
8892;DHT22;4482;54.332;10.118;2024-01-11T14:34:52;3.30;99.90
8892;DHT22;4482;54.332;10.118;2024-01-11T14:37:19;3.30;99.90
8892;DHT22;4482;54.332;10.118;2024-01-11T14:39:45;3.30;99.90
8892;DHT22;4482;54.332;10.118;2024-01-11T14:42:12;3.30;99.90
8892;DHT22;4482;54.332;10.118;2024-01-11T14:44:40;3.30;99.90
8892;DHT22;4482;54.332;10.118;2024-01-11T14:47:07;3.30;99.90
8892;DHT22;4482;54.332;10.118;2024-01-11T14:49:34;3.30;99.90
8892;DHT22;4482;54.332;10.118;2024-01-11T14:52:00;3.30;99.90
8892;DHT22;4482;54.332;10.118;2024-01-11T14:54:27;3.30;99.90
8892;DHT22;4482;54.332;10.118;2024-01-11T14:56:54;3.30;99.90
8892;DHT22;4482;54.332;10.118;2024-01-11T14:59:21;3.20;99.90
8892;DHT22;4482;54.332;10.118;2024-01-11T15:01:49;3.20;99.90
8892;DHT22;4482;54.332;10.118;2024-01-11T15:04:16;3.20;99.90
8892;DHT22;4482;54.332;10.118;2024-01-11T15:06:43;3.20;99.90
8892;DHT22;4482;54.332;10.118;2024-01-11T15:09:10;3.20;99.90
8892;DHT22;4482;54.332;10.118;2024-01-11T15:11:37;3.20;99.90
8892;DHT22;4482;54.332;10.118;2024-01-11T15:14:05;3.20;99.90
8892;DHT22;4482;54.332;10.118;2024-01-11T15:16:31;3.10;99.90
8892;DHT22;4482;54.332;10.118;2024-01-11T15:18:59;3.00;99.90
8892;DHT22;4482;54.332;10.118;2024-01-11T15:21:26;3.00;99.90
8892;DHT22;4482;54.332;10.118;2024-01-11T15:23:53;3.00;99.90
8892;DHT22;4482;54.332;10.118;2024-01-11T15:26:20;3.00;99.90
8892;DHT22;4482;54.332;10.118;2024-01-11T15:28:47;2.90;99.90
8892;DHT22;4482;54.332;10.118;2024-01-11T15:31:13;2.90;99.90
8892;DHT22;4482;54.332;10.118;2024-01-11T15:33:40;3.10;99.90
8892;DHT22;4482;54.332;10.118;2024-01-11T15:36:09;3.20;99.90
8892;DHT22;4482;54.332;10.118;2024-01-11T15:38:35;3.10;99.90
8892;DHT22;4482;54.332;10.118;2024-01-11T15:41:03;2.90;99.90
8892;DHT22;4482;54.332;10.118;2024-01-11T15:43:30;2.90;99.90
8892;DHT22;4482;54.332;10.118;2024-01-11T15:45:56;2.80;99.90
8892;DHT22;4482;54.332;10.118;2024-01-11T15:48:23;2.80;99.90
8892;DHT22;4482;54.332;10.118;2024-01-11T15:50:51;2.70;99.90
8892;DHT22;4482;54.332;10.118;2024-01-11T15:53:21;2.70;99.90
8892;DHT22;4482;54.332;10.118;2024-01-11T15:55:48;2.60;99.90
8892;DHT22;4482;54.332;10.118;2024-01-11T15:58:16;2.60;99.90
8892;DHT22;4482;54.332;10.118;2024-01-11T16:00:43;2.60;99.90